createdAt,value
2022-10-05T00:01:33.373Z,100.00
2022-10-05T00:04:15.355Z,100.00
2022-10-05T00:06:44.852Z,100.00
2022-10-05T00:09:21.611Z,100.00
2022-10-05T00:11:49.412Z,100.00
2022-10-05T00:14:22.345Z,100.00
2022-10-05T00:16:49.444Z,100.00
2022-10-05T00:19:26.380Z,100.00
2022-10-05T00:21:52.993Z,100.00
2022-10-05T00:24:20.541Z,100.00
2022-10-05T00:26:47.475Z,100.00
2022-10-05T00:29:22.530Z,100.00
2022-10-05T00:31:50.168Z,100.00
2022-10-05T00:34:17.843Z,100.00
2022-10-05T00:36:45.623Z,100.00
2022-10-05T00:39:12.792Z,100.00
2022-10-05T00:41:57.933Z,100.00
2022-10-05T00:44:33.718Z,100.00
2022-10-05T00:47:21.545Z,100.00
2022-10-05T00:50:14.594Z,100.00
2022-10-05T00:53:12.391Z,100.00
2022-10-05T00:55:57.366Z,100.00
2022-10-05T00:58:53.181Z,100.00
2022-10-05T01:01:50.999Z,100.00
2022-10-05T01:04:47.024Z,100.00
2022-10-05T01:07:23.603Z,100.00
2022-10-05T01:09:58.096Z,100.00
2022-10-05T01:12:42.887Z,100.00
2022-10-05T01:15:21.859Z,100.00
2022-10-05T01:17:48.398Z,100.00
2022-10-05T01:20:31.003Z,100.00
2022-10-05T01:23:16.369Z,100.00
2022-10-05T01:26:19.869Z,100.00
2022-10-05T01:28:49.423Z,100.00
2022-10-05T01:31:25.086Z,100.00
2022-10-05T01:33:57.803Z,100.00
2022-10-05T01:36:30.478Z,100.00
2022-10-05T01:39:11.675Z,100.00
2022-10-05T01:41:52.385Z,100.00
2022-10-05T01:44:33.319Z,100.00
2022-10-05T01:47:07.287Z,100.00
2022-10-05T01:49:33.859Z,100.00
2022-10-05T01:52:19.213Z,100.00
2022-10-05T01:55:31.253Z,100.00
2022-10-05T01:58:23.323Z,100.00
2022-10-05T02:01:00.558Z,100.00
2022-10-05T02:03:42.685Z,100.00
2022-10-05T02:06:35.171Z,100.00
2022-10-05T02:09:06.395Z,100.00
2022-10-05T02:11:34.245Z,100.00
2022-10-05T02:14:11.558Z,100.00
2022-10-05T02:16:47.636Z,100.00
2022-10-05T02:19:22.011Z,100.00
2022-10-05T02:21:54.548Z,100.00
2022-10-05T02:24:31.200Z,100.00
2022-10-05T02:26:59.088Z,100.00
2022-10-05T02:29:31.072Z,100.00
2022-10-05T02:32:03.036Z,100.00
2022-10-05T02:34:41.566Z,100.00
2022-10-05T02:37:32.640Z,100.00
2022-10-05T02:40:08.496Z,100.00
2022-10-05T02:42:46.188Z,100.00
2022-10-05T02:45:33.615Z,100.00
2022-10-05T02:48:07.999Z,100.00
2022-10-05T02:50:46.759Z,100.00
2022-10-05T02:53:22.248Z,100.00
2022-10-05T02:55:53.656Z,100.00
2022-10-05T02:58:24.925Z,100.00
2022-10-05T03:01:03.348Z,100.00
2022-10-05T03:03:41.897Z,100.00
2022-10-05T03:06:23.192Z,100.00
2022-10-05T03:09:04.121Z,100.00
2022-10-05T03:12:09.812Z,100.00
2022-10-05T03:15:02.654Z,100.00
2022-10-05T03:17:42.139Z,100.00
2022-10-05T03:20:08.727Z,100.00
2022-10-05T03:22:53.476Z,100.00
2022-10-05T03:25:35.166Z,100.00
2022-10-05T03:28:20.519Z,100.00
2022-10-05T03:30:59.142Z,100.00
2022-10-05T03:33:40.751Z,100.00
2022-10-05T03:37:06.038Z,100.00
2022-10-05T03:39:51.529Z,100.00
2022-10-05T03:42:33.201Z,100.00
2022-10-05T03:45:16.247Z,100.00
2022-10-05T03:47:49.139Z,100.00
2022-10-05T03:50:18.818Z,100.00
2022-10-05T03:52:56.037Z,100.00
2022-10-05T03:55:43.744Z,100.00
2022-10-05T03:58:25.979Z,100.00
2022-10-05T04:00:57.800Z,100.00
2022-10-05T04:03:24.758Z,100.00
2022-10-05T04:05:59.304Z,100.00
2022-10-05T04:08:38.244Z,100.00
2022-10-05T04:11:11.641Z,100.00
2022-10-05T04:13:54.801Z,100.00
2022-10-05T04:16:28.339Z,100.00
2022-10-05T04:19:02.578Z,100.00
2022-10-05T04:21:59.380Z,100.00
2022-10-05T04:24:47.414Z,100.00
2022-10-05T04:27:30.954Z,100.00
2022-10-05T04:30:05.253Z,100.00
2022-10-05T04:32:43.907Z,100.00
2022-10-05T04:35:34.806Z,100.00
2022-10-05T04:38:25.011Z,100.00
2022-10-05T04:41:20.698Z,100.00
2022-10-05T04:44:06.068Z,100.00
2022-10-05T04:47:18.191Z,100.00
2022-10-05T04:49:56.199Z,100.00
2022-10-05T04:52:48.239Z,100.00
2022-10-05T04:55:33.466Z,100.00
2022-10-05T04:58:10.750Z,100.00
2022-10-05T05:01:07.889Z,100.00
2022-10-05T05:04:08.139Z,100.00
2022-10-05T05:06:53.575Z,100.00
2022-10-05T05:09:39.753Z,100.00
2022-10-05T05:12:41.841Z,100.00
2022-10-05T05:15:26.974Z,100.00
2022-10-05T05:18:19.733Z,100.00
2022-10-05T05:21:17.220Z,100.00
2022-10-05T05:24:11.565Z,100.00
2022-10-05T05:26:57.059Z,100.00
2022-10-05T05:30:01.215Z,100.00
2022-10-05T05:32:58.605Z,100.00
2022-10-05T05:35:38.776Z,100.00
2022-10-05T05:38:23.612Z,100.00
2022-10-05T05:41:13.273Z,100.00
2022-10-05T05:43:48.753Z,100.00
2022-10-05T05:46:30.104Z,100.00
2022-10-05T05:49:39.759Z,100.00
2022-10-05T05:52:22.437Z,100.00
2022-10-05T05:54:58.317Z,100.00
2022-10-05T05:57:33.229Z,100.00
2022-10-05T06:00:26.447Z,100.00
2022-10-05T06:03:03.642Z,100.00
2022-10-05T06:05:40.700Z,100.00
2022-10-05T06:08:13.568Z,100.00
2022-10-05T06:10:46.956Z,100.00
2022-10-05T06:13:23.309Z,100.00
2022-10-05T06:15:57.813Z,100.00
2022-10-05T06:18:25.621Z,100.00
2022-10-05T06:20:56.050Z,100.00
2022-10-05T06:23:34.180Z,100.00
2022-10-05T06:26:15.934Z,100.00
2022-10-05T06:28:43.099Z,100.00
2022-10-05T06:31:29.748Z,100.00
2022-10-05T06:34:28.063Z,100.00
2022-10-05T06:37:05.845Z,100.00
2022-10-05T06:40:07.627Z,100.00
2022-10-05T06:42:37.075Z,100.00
2022-10-05T06:45:22.093Z,100.00
2022-10-05T06:48:04.312Z,100.00
2022-10-05T06:50:58.233Z,100.00
2022-10-05T06:53:44.544Z,100.00
2022-10-05T06:56:21.217Z,100.00
2022-10-05T06:59:16.722Z,100.00
2022-10-05T07:02:24.968Z,100.00
2022-10-05T07:05:12.641Z,100.00
2022-10-05T07:08:07.045Z,100.00
2022-10-05T07:10:43.811Z,100.00
2022-10-05T07:13:10.440Z,100.00
2022-10-05T07:16:12.418Z,100.00
2022-10-05T07:18:51.089Z,100.00
2022-10-05T07:21:39.516Z,100.00
2022-10-05T07:24:25.034Z,100.00
2022-10-05T07:27:14.880Z,100.00
2022-10-05T07:29:44.362Z,100.00
2022-10-05T07:32:29.737Z,100.00
2022-10-05T07:34:59.344Z,100.00
2022-10-05T07:37:57.995Z,100.00
2022-10-05T07:40:29.372Z,100.00
2022-10-05T07:43:03.945Z,100.00
2022-10-05T07:45:44.702Z,98.21
2022-10-05T07:52:51.629Z,96.13
2022-10-05T07:55:22.042Z,92.08
2022-10-05T07:58:02.034Z,91.60
2022-10-05T08:00:46.441Z,91.26
2022-10-05T08:03:38.442Z,88.59
2022-10-05T08:06:10.745Z,83.96
2022-10-05T08:08:53.994Z,85.18
2022-10-05T08:11:55.394Z,84.29
2022-10-05T08:14:38.440Z,82.85
2022-10-05T08:17:21.695Z,82.39
2022-10-05T08:20:06.345Z,80.77
2022-10-05T08:22:47.126Z,79.16
2022-10-05T08:25:26.727Z,78.28
2022-10-05T08:28:03.524Z,76.61
2022-10-05T08:30:35.775Z,74.93
2022-10-05T08:33:14.855Z,73.71
2022-10-05T08:35:44.853Z,75.31
2022-10-05T08:38:23.568Z,73.40
2022-10-05T08:41:19.948Z,72.85
2022-10-05T08:44:05.284Z,73.46
2022-10-05T08:46:56.302Z,73.32
2022-10-05T08:49:42.098Z,73.22
2022-10-05T08:52:30.437Z,71.88
2022-10-05T08:55:36.801Z,70.56
2022-10-05T08:58:27.631Z,70.67
2022-10-05T09:01:22.046Z,71.79
2022-10-05T09:03:57.563Z,73.49
2022-10-05T09:06:29.469Z,72.85
2022-10-05T09:09:09.760Z,72.12
2022-10-05T09:11:46.115Z,71.13
2022-10-05T09:14:34.540Z,68.81
2022-10-05T09:17:25.934Z,67.37
2022-10-05T09:20:32.913Z,65.19
2022-10-05T09:23:35.461Z,64.79
2022-10-05T09:26:02.241Z,65.84
2022-10-05T09:29:02.999Z,66.27
2022-10-05T09:31:57.826Z,65.18
2022-10-05T09:34:47.189Z,66.72
2022-10-05T09:37:21.779Z,62.87
2022-10-05T09:39:57.798Z,62.41
2022-10-05T09:42:29.816Z,62.88
2022-10-05T09:45:21.383Z,61.76
2022-10-05T09:48:00.417Z,63.03
2022-10-05T09:50:52.531Z,62.90
2022-10-05T09:53:41.179Z,60.76
2022-10-05T09:56:26.267Z,60.92
2022-10-05T09:59:23.783Z,60.08
2022-10-05T10:02:19.929Z,59.92
2022-10-05T10:05:05.924Z,57.12
2022-10-05T10:07:44.682Z,55.97
2022-10-05T10:10:29.327Z,56.83
2022-10-05T10:12:58.544Z,57.75
2022-10-05T10:15:33.122Z,56.82
2022-10-05T10:18:24.659Z,57.79
2022-10-05T10:21:30.377Z,55.62
2022-10-05T10:24:27.448Z,57.28
2022-10-05T10:27:00.036Z,57.23
2022-10-05T10:29:54.793Z,55.38
2022-10-05T10:32:56.970Z,52.74
2022-10-05T10:35:50.165Z,53.32
2022-10-05T10:38:31.269Z,56.31
2022-10-05T10:41:22.647Z,56.59
2022-10-05T10:44:12.287Z,55.97
2022-10-05T10:46:45.419Z,55.46
2022-10-05T10:49:33.943Z,54.47
2022-10-05T10:52:24.891Z,54.92
2022-10-05T10:54:52.839Z,54.77
2022-10-05T10:57:54.076Z,53.43
2022-10-05T11:00:30.933Z,52.44
2022-10-05T11:03:24.961Z,52.43
2022-10-05T11:05:51.576Z,51.75
2022-10-05T11:08:18.344Z,51.35
2022-10-05T11:11:03.795Z,51.78
2022-10-05T11:14:02.949Z,50.96
2022-10-05T11:17:07.556Z,51.97
2022-10-05T11:20:28.656Z,48.76
2022-10-05T11:23:18.488Z,49.96
2022-10-05T11:26:12.830Z,51.05
2022-10-05T11:29:07.001Z,53.77
2022-10-05T11:32:04.599Z,53.38
2022-10-05T11:34:53.193Z,53.74
2022-10-05T11:37:22.762Z,52.80
2022-10-05T11:40:34.053Z,52.02
2022-10-05T11:43:42.314Z,52.73
2022-10-05T11:46:36.285Z,51.94
2022-10-05T11:49:21.616Z,52.09
2022-10-05T11:52:23.280Z,52.18
2022-10-05T11:55:14.979Z,53.24
2022-10-05T11:57:58.395Z,53.92
2022-10-05T12:00:34.587Z,54.35
2022-10-05T12:03:30.468Z,52.85
2022-10-05T12:06:27.417Z,53.62
2022-10-05T12:09:12.177Z,52.54
2022-10-05T12:12:27.015Z,51.30
2022-10-05T12:15:12.041Z,51.22
2022-10-05T12:18:01.283Z,50.00
2022-10-05T12:20:36.658Z,50.62
2022-10-05T12:23:14.688Z,50.32
2022-10-05T12:26:11.161Z,51.67
2022-10-05T12:28:52.256Z,51.30
2022-10-05T12:31:51.288Z,51.40
2022-10-05T12:34:26.853Z,51.04
2022-10-05T12:37:05.311Z,52.29
2022-10-05T12:39:41.138Z,52.04
2022-10-05T12:42:39.412Z,50.93
2022-10-05T12:45:26.513Z,50.64
2022-10-05T12:48:27.126Z,52.57
2022-10-05T12:50:59.863Z,52.31
2022-10-05T12:53:29.341Z,53.41
2022-10-05T12:55:55.925Z,52.49
2022-10-05T12:58:41.144Z,53.13
2022-10-05T13:01:20.961Z,51.09
2022-10-05T13:04:18.529Z,51.37
2022-10-05T13:07:04.789Z,49.89
2022-10-05T13:09:34.372Z,52.37
2022-10-05T13:12:11.989Z,51.10
2022-10-05T13:14:58.361Z,49.85
2022-10-05T13:17:45.187Z,50.07
2022-10-05T13:20:24.100Z,51.75
2022-10-05T13:23:08.034Z,50.77
2022-10-05T13:25:51.705Z,51.50
2022-10-05T13:28:49.560Z,51.75
2022-10-05T13:31:23.882Z,51.41
2022-10-05T13:33:53.597Z,52.86
2022-10-05T13:36:32.187Z,53.86
2022-10-05T13:39:03.542Z,52.41
2022-10-05T13:41:50.243Z,51.40
2022-10-05T13:44:38.247Z,51.87
2022-10-05T13:47:28.575Z,51.94
2022-10-05T13:50:23.417Z,52.49
2022-10-05T13:53:07.933Z,52.91
2022-10-05T13:56:03.479Z,53.19
2022-10-05T13:58:51.925Z,53.78
2022-10-05T14:01:41.707Z,52.43
2022-10-05T14:04:21.176Z,53.86
2022-10-05T14:06:49.282Z,57.85
2022-10-05T14:09:30.750Z,58.13
2022-10-05T14:12:03.281Z,56.35
2022-10-05T14:14:32.329Z,56.01
2022-10-05T14:17:05.612Z,57.83
2022-10-05T14:19:34.307Z,58.35
2022-10-05T14:22:03.322Z,57.79
2022-10-05T14:24:50.232Z,58.98
2022-10-05T14:27:19.964Z,59.64
2022-10-05T14:29:52.330Z,59.25
2022-10-05T14:32:23.674Z,59.93
2022-10-05T14:35:13.040Z,60.85
2022-10-05T14:38:00.200Z,59.91
2022-10-05T14:40:36.061Z,59.70
2022-10-05T14:43:19.589Z,61.15
2022-10-05T14:46:23.243Z,62.73
2022-10-05T14:49:17.294Z,63.79
2022-10-05T14:51:44.163Z,65.33
2022-10-05T14:54:46.959Z,64.31
2022-10-05T14:57:39.296Z,62.21
2022-10-05T15:00:17.020Z,60.00
2022-10-05T15:03:27.358Z,60.10
2022-10-05T15:05:58.900Z,58.85
2022-10-05T15:08:49.555Z,59.36
2022-10-05T15:11:42.598Z,59.48
2022-10-05T15:14:20.371Z,61.14
2022-10-05T15:16:51.948Z,59.02
2022-10-05T15:20:00.141Z,59.12
2022-10-05T15:22:31.844Z,58.58
2022-10-05T15:25:10.818Z,59.13
2022-10-05T15:27:58.980Z,62.19
2022-10-05T15:30:25.897Z,62.85
2022-10-05T15:33:01.503Z,63.57
2022-10-05T15:35:31.145Z,64.41
2022-10-05T15:38:20.770Z,65.70
2022-10-05T15:40:47.602Z,66.57
2022-10-05T15:43:19.068Z,68.07
2022-10-05T15:46:08.676Z,69.19
2022-10-05T15:48:53.961Z,70.78
2022-10-05T15:51:45.458Z,74.49
2022-10-05T15:54:42.346Z,75.99
2022-10-05T15:57:23.679Z,77.05
2022-10-05T16:00:07.761Z,78.99
2022-10-05T16:02:41.935Z,79.55
2022-10-05T16:05:11.404Z,78.23
2022-10-05T16:08:06.353Z,79.99
2022-10-05T16:10:37.284Z,80.96
2022-10-05T16:13:16.388Z,80.59
2022-10-05T16:15:50.099Z,80.45
2022-10-05T16:18:22.911Z,80.72
2022-10-05T16:20:52.194Z,81.80
2022-10-05T16:23:33.707Z,83.28
2022-10-05T16:26:21.742Z,83.67
2022-10-05T16:28:58.247Z,85.21
2022-10-05T16:31:37.505Z,86.29
2022-10-05T16:34:36.605Z,88.51
2022-10-05T16:37:09.859Z,90.98
2022-10-05T16:40:00.244Z,92.75
2022-10-05T16:42:47.948Z,96.08
2022-10-05T16:45:27.924Z,97.14
2022-10-05T16:48:00.242Z,96.42
2022-10-05T16:50:43.102Z,96.63
2022-10-05T16:53:15.791Z,96.23
2022-10-05T16:55:51.843Z,95.47
2022-10-05T16:58:35.345Z,94.99
2022-10-05T17:01:27.032Z,94.23
2022-10-05T17:04:14.726Z,93.05
2022-10-05T17:06:56.656Z,92.79
2022-10-05T17:09:43.543Z,92.64
2022-10-05T17:12:20.698Z,92.99
2022-10-05T17:15:00.368Z,93.14
2022-10-05T17:17:38.424Z,93.68
2022-10-05T17:20:23.686Z,93.93
2022-10-05T17:23:02.164Z,94.89
2022-10-05T17:25:45.823Z,95.61
2022-10-05T17:28:18.715Z,98.16
2022-10-05T17:30:53.972Z,99.24
2022-10-05T17:33:27.735Z,100.00
2022-10-05T17:36:04.788Z,100.00
2022-10-05T17:38:31.468Z,100.00
2022-10-05T17:41:05.480Z,100.00
2022-10-05T17:43:33.888Z,100.00
2022-10-05T17:46:06.759Z,100.00
2022-10-05T17:48:36.771Z,100.00
2022-10-05T17:51:26.101Z,100.00
2022-10-05T17:54:11.172Z,100.00
2022-10-05T17:56:54.319Z,100.00
2022-10-05T17:59:44.693Z,100.00
2022-10-05T18:02:38.487Z,100.00
2022-10-05T18:05:16.250Z,100.00
2022-10-05T18:07:48.192Z,100.00
2022-10-05T18:10:30.674Z,100.00
2022-10-05T18:13:00.353Z,100.00
2022-10-05T18:15:26.923Z,100.00
2022-10-05T18:17:59.612Z,100.00
2022-10-05T18:20:29.620Z,100.00
2022-10-05T18:23:09.566Z,100.00
2022-10-05T18:26:18.151Z,100.00
2022-10-05T18:28:56.280Z,100.00
2022-10-05T18:31:38.224Z,99.86
2022-10-05T18:34:30.828Z,100.00
2022-10-05T18:37:21.861Z,100.00
2022-10-05T18:39:58.276Z,100.00
2022-10-05T18:42:40.038Z,100.00
2022-10-05T18:45:19.144Z,100.00
2022-10-05T18:47:59.421Z,100.00
2022-10-05T18:50:29.564Z,100.00
2022-10-05T18:53:26.740Z,100.00
2022-10-05T18:56:12.420Z,100.00
2022-10-05T18:58:52.074Z,100.00
2022-10-05T19:01:44.160Z,100.00
2022-10-05T19:04:32.592Z,100.00
2022-10-05T19:07:08.415Z,100.00
2022-10-05T19:09:38.788Z,100.00
2022-10-05T19:12:31.169Z,100.00
2022-10-05T19:15:27.187Z,100.00
2022-10-05T19:18:12.388Z,100.00
2022-10-05T19:20:39.955Z,100.00
2022-10-05T19:23:18.701Z,100.00
2022-10-05T19:25:54.813Z,100.00
2022-10-05T19:28:31.346Z,100.00
2022-10-05T19:31:07.340Z,100.00
2022-10-05T19:34:13.463Z,100.00
2022-10-05T19:36:46.341Z,100.00
2022-10-05T19:39:21.233Z,100.00
2022-10-05T19:42:26.348Z,100.00
2022-10-05T19:45:12.008Z,100.00
2022-10-05T19:47:53.495Z,100.00
2022-10-05T19:50:26.572Z,100.00
2022-10-05T19:53:09.321Z,100.00
2022-10-05T19:55:41.567Z,100.00
2022-10-05T19:58:29.155Z,100.00
2022-10-05T20:01:01.375Z,100.00
2022-10-05T20:03:32.950Z,100.00
2022-10-05T20:06:10.550Z,100.00
2022-10-05T20:08:43.835Z,100.00
2022-10-05T20:11:27.264Z,100.00
2022-10-05T20:13:53.983Z,100.00
2022-10-05T20:16:47.829Z,100.00
2022-10-05T20:19:43.205Z,100.00
2022-10-05T20:22:33.508Z,100.00
2022-10-05T20:25:20.334Z,100.00
2022-10-05T20:27:56.821Z,100.00
2022-10-05T20:30:28.796Z,100.00
2022-10-05T20:32:58.292Z,100.00
2022-10-05T20:35:27.922Z,100.00
2022-10-05T20:37:59.465Z,100.00
2022-10-05T20:40:29.141Z,100.00
2022-10-05T20:42:57.020Z,100.00
2022-10-05T20:45:23.885Z,100.00
2022-10-05T20:47:51.699Z,100.00
2022-10-05T20:50:18.553Z,100.00
2022-10-05T20:52:45.271Z,100.00
2022-10-05T20:55:12.613Z,100.00
2022-10-05T20:57:42.228Z,100.00
2022-10-05T21:00:10.112Z,100.00
2022-10-05T21:02:37.243Z,100.00
2022-10-05T21:05:04.716Z,100.00
2022-10-05T21:07:34.102Z,100.00
2022-10-05T21:10:06.726Z,100.00
2022-10-05T21:12:34.739Z,100.00
2022-10-05T21:15:04.673Z,100.00
2022-10-05T21:17:31.572Z,100.00
2022-10-05T21:19:58.293Z,100.00
2022-10-05T21:22:25.109Z,100.00
2022-10-05T21:24:51.704Z,100.00
2022-10-05T21:27:18.404Z,100.00
2022-10-05T21:29:45.397Z,100.00
2022-10-05T21:32:12.130Z,100.00
2022-10-05T21:34:39.791Z,100.00
2022-10-05T21:37:07.105Z,100.00
2022-10-05T21:39:35.136Z,100.00
2022-10-05T21:42:01.863Z,100.00
2022-10-05T21:44:28.613Z,100.00
2022-10-05T21:46:56.036Z,100.00
2022-10-05T21:49:23.369Z,100.00
2022-10-05T21:51:50.309Z,100.00
2022-10-05T21:54:21.559Z,100.00
2022-10-05T21:56:54.723Z,100.00
2022-10-05T21:59:26.693Z,100.00
2022-10-05T22:01:53.886Z,100.00
2022-10-05T22:04:20.560Z,100.00
2022-10-05T22:06:48.317Z,100.00
2022-10-05T22:09:14.960Z,100.00
2022-10-05T22:11:41.619Z,100.00
2022-10-05T22:14:08.268Z,100.00
2022-10-05T22:16:38.230Z,100.00
2022-10-05T22:19:10.243Z,100.00
2022-10-05T22:21:41.519Z,100.00
2022-10-05T22:24:11.587Z,100.00
2022-10-05T22:26:40.189Z,100.00
2022-10-05T22:29:07.139Z,100.00
2022-10-05T22:31:34.055Z,100.00
2022-10-05T22:34:00.908Z,100.00
2022-10-05T22:36:27.541Z,100.00
2022-10-05T22:38:54.423Z,100.00
2022-10-05T22:41:21.284Z,100.00
2022-10-05T22:43:50.165Z,100.00
2022-10-05T22:46:17.107Z,100.00
2022-10-05T22:48:43.800Z,100.00
2022-10-05T22:51:10.471Z,100.00
2022-10-05T22:53:37.299Z,100.00
2022-10-05T22:56:12.630Z,100.00
2022-10-05T22:58:41.058Z,100.00
2022-10-05T23:01:14.181Z,100.00
2022-10-05T23:03:41.546Z,100.00
2022-10-05T23:06:14.116Z,100.00
2022-10-05T23:08:41.770Z,100.00
2022-10-05T23:11:16.798Z,100.00
2022-10-05T23:13:44.237Z,100.00
2022-10-05T23:16:16.693Z,100.00
2022-10-05T23:18:44.075Z,100.00
2022-10-05T23:21:11.635Z,100.00
2022-10-05T23:23:40.669Z,100.00
2022-10-05T23:26:09.322Z,100.00
2022-10-05T23:28:36.263Z,100.00
2022-10-05T23:31:06.215Z,100.00
2022-10-05T23:33:33.344Z,100.00
2022-10-05T23:36:04.498Z,100.00
2022-10-05T23:38:31.835Z,100.00
2022-10-05T23:40:59.821Z,100.00
2022-10-05T23:43:27.501Z,100.00
2022-10-05T23:45:54.398Z,100.00
2022-10-05T23:48:21.576Z,100.00
2022-10-05T23:50:49.529Z,100.00
2022-10-05T23:53:17.138Z,100.00
2022-10-05T23:55:43.924Z,100.00
2022-10-05T23:58:11.052Z,100.00
